sensor_id;sensor_type;location;lat;lon;timestamp;P1;durP1;ratioP1;P2;durP2;ratioP2
74894;SDS011;63447;49.446;8.666;2023-03-17T00:00:34;5.38;;;2.55;;
74894;SDS011;63447;49.446;8.666;2023-03-17T00:03:00;6.90;;;2.63;;
74894;SDS011;63447;49.446;8.666;2023-03-17T00:05:29;5.40;;;2.60;;
74894;SDS011;63447;49.446;8.666;2023-03-17T00:08:01;5.95;;;2.65;;
74894;SDS011;63447;49.446;8.666;2023-03-17T00:12:58;5.65;;;2.67;;
74894;SDS011;63447;49.446;8.666;2023-03-17T00:15:25;6.00;;;2.80;;
74894;SDS011;63447;49.446;8.666;2023-03-17T00:17:53;5.20;;;2.55;;
74894;SDS011;63447;49.446;8.666;2023-03-17T00:22:53;6.13;;;2.80;;
74894;SDS011;63447;49.446;8.666;2023-03-17T00:52:18;6.40;;;2.58;;
74894;SDS011;63447;49.446;8.666;2023-03-17T00:54:44;7.57;;;2.30;;
74894;SDS011;63447;49.446;8.666;2023-03-17T00:57:09;5.43;;;2.42;;
74894;SDS011;63447;49.446;8.666;2023-03-17T00:59:37;4.70;;;2.10;;
74894;SDS011;63447;49.446;8.666;2023-03-17T01:02:04;4.10;;;1.77;;
74894;SDS011;63447;49.446;8.666;2023-03-17T01:04:31;5.97;;;2.42;;
74894;SDS011;63447;49.446;8.666;2023-03-17T01:06:57;5.28;;;2.40;;
74894;SDS011;63447;49.446;8.666;2023-03-17T01:09:24;6.20;;;2.50;;
74894;SDS011;63447;49.446;8.666;2023-03-17T01:11:51;5.38;;;2.40;;
74894;SDS011;63447;49.446;8.666;2023-03-17T01:14:17;5.43;;;2.42;;
74894;SDS011;63447;49.446;8.666;2023-03-17T01:16:44;5.85;;;2.90;;
74894;SDS011;63447;49.446;8.666;2023-03-17T01:19:12;5.30;;;2.30;;
74894;SDS011;63447;49.446;8.666;2023-03-17T01:21:37;5.70;;;2.38;;
74894;SDS011;63447;49.446;8.666;2023-03-17T01:24:03;5.70;;;2.50;;
74894;SDS011;63447;49.446;8.666;2023-03-17T01:26:34;5.65;;;2.55;;
74894;SDS011;63447;49.446;8.666;2023-03-17T01:29:03;6.43;;;2.58;;
74894;SDS011;63447;49.446;8.666;2023-03-17T01:31:30;4.95;;;2.30;;
74894;SDS011;63447;49.446;8.666;2023-03-17T01:33:55;5.78;;;2.35;;
74894;SDS011;63447;49.446;8.666;2023-03-17T01:36:20;5.13;;;2.57;;
74894;SDS011;63447;49.446;8.666;2023-03-17T01:38:46;6.30;;;2.40;;
74894;SDS011;63447;49.446;8.666;2023-03-17T01:41:13;5.60;;;2.47;;
74894;SDS011;63447;49.446;8.666;2023-03-17T01:43:39;5.53;;;2.75;;
74894;SDS011;63447;49.446;8.666;2023-03-17T01:54:05;6.32;;;2.50;;
74894;SDS011;63447;49.446;8.666;2023-03-17T01:56:36;5.03;;;2.33;;
74894;SDS011;63447;49.446;8.666;2023-03-17T01:59:05;5.57;;;2.60;;
74894;SDS011;63447;49.446;8.666;2023-03-17T02:01:32;7.03;;;2.60;;
74894;SDS011;63447;49.446;8.666;2023-03-17T02:04:01;4.72;;;2.33;;
74894;SDS011;63447;49.446;8.666;2023-03-17T02:06:28;7.32;;;2.80;;
74894;SDS011;63447;49.446;8.666;2023-03-17T02:08:55;4.85;;;2.20;;
74894;SDS011;63447;49.446;8.666;2023-03-17T02:11:20;5.50;;;2.38;;
74894;SDS011;63447;49.446;8.666;2023-03-17T02:13:46;4.88;;;2.22;;
74894;SDS011;63447;49.446;8.666;2023-03-17T02:16:15;7.18;;;2.22;;
74894;SDS011;63447;49.446;8.666;2023-03-17T02:18:41;6.03;;;2.30;;
74894;SDS011;63447;49.446;8.666;2023-03-17T02:23:51;4.97;;;2.03;;
74894;SDS011;63447;49.446;8.666;2023-03-17T02:26:16;5.65;;;2.20;;
74894;SDS011;63447;49.446;8.666;2023-03-17T02:28:44;6.95;;;2.60;;
74894;SDS011;63447;49.446;8.666;2023-03-17T02:31:10;7.00;;;2.95;;
74894;SDS011;63447;49.446;8.666;2023-03-17T02:33:38;5.70;;;2.42;;
74894;SDS011;63447;49.446;8.666;2023-03-17T02:36:03;5.57;;;2.20;;
74894;SDS011;63447;49.446;8.666;2023-03-17T02:38:29;5.30;;;2.30;;
74894;SDS011;63447;49.446;8.666;2023-03-17T02:40:54;5.18;;;2.33;;
74894;SDS011;63447;49.446;8.666;2023-03-17T02:43:25;4.65;;;1.92;;
74894;SDS011;63447;49.446;8.666;2023-03-17T02:45:50;4.57;;;1.87;;
74894;SDS011;63447;49.446;8.666;2023-03-17T02:48:18;4.65;;;1.95;;
74894;SDS011;63447;49.446;8.666;2023-03-17T02:50:46;5.32;;;2.05;;
74894;SDS011;63447;49.446;8.666;2023-03-17T02:53:14;6.43;;;2.45;;
74894;SDS011;63447;49.446;8.666;2023-03-17T02:55:40;5.33;;;2.10;;
74894;SDS011;63447;49.446;8.666;2023-03-17T02:58:06;4.80;;;1.92;;
74894;SDS011;63447;49.446;8.666;2023-03-17T03:00:31;5.93;;;2.33;;
74894;SDS011;63447;49.446;8.666;2023-03-17T03:02:57;6.15;;;2.30;;
74894;SDS011;63447;49.446;8.666;2023-03-17T03:05:23;5.47;;;2.40;;
74894;SDS011;63447;49.446;8.666;2023-03-17T03:07:48;5.57;;;2.33;;
74894;SDS011;63447;49.446;8.666;2023-03-17T03:10:16;6.03;;;2.78;;
74894;SDS011;63447;49.446;8.666;2023-03-17T03:12:43;5.18;;;2.35;;
74894;SDS011;63447;49.446;8.666;2023-03-17T03:15:09;8.02;;;2.53;;
74894;SDS011;63447;49.446;8.666;2023-03-17T03:17:34;5.07;;;2.40;;
74894;SDS011;63447;49.446;8.666;2023-03-17T03:20:00;5.80;;;2.28;;
74894;SDS011;63447;49.446;8.666;2023-03-17T03:22:26;4.95;;;2.50;;
74894;SDS011;63447;49.446;8.666;2023-03-17T03:24:51;5.53;;;2.40;;
74894;SDS011;63447;49.446;8.666;2023-03-17T03:27:17;4.90;;;2.30;;
74894;SDS011;63447;49.446;8.666;2023-03-17T03:29:45;5.03;;;2.53;;
74894;SDS011;63447;49.446;8.666;2023-03-17T03:32:13;5.43;;;2.92;;
74894;SDS011;63447;49.446;8.666;2023-03-17T03:34:38;5.88;;;3.33;;
74894;SDS011;63447;49.446;8.666;2023-03-17T03:37:04;6.00;;;3.30;;
74894;SDS011;63447;49.446;8.666;2023-03-17T03:39:32;6.10;;;3.22;;
74894;SDS011;63447;49.446;8.666;2023-03-17T03:41:59;6.50;;;3.40;;
74894;SDS011;63447;49.446;8.666;2023-03-17T03:44:25;6.53;;;3.25;;
74894;SDS011;63447;49.446;8.666;2023-03-17T03:46:50;7.23;;;3.03;;
74894;SDS011;63447;49.446;8.666;2023-03-17T03:49:15;6.37;;;2.83;;
74894;SDS011;63447;49.446;8.666;2023-03-17T03:51:41;5.97;;;3.13;;
74894;SDS011;63447;49.446;8.666;2023-03-17T03:54:06;6.78;;;3.30;;
74894;SDS011;63447;49.446;8.666;2023-03-17T03:56:34;6.82;;;3.08;;
74894;SDS011;63447;49.446;8.666;2023-03-17T03:58:59;7.07;;;3.58;;
74894;SDS011;63447;49.446;8.666;2023-03-17T04:01:25;6.43;;;3.65;;
74894;SDS011;63447;49.446;8.666;2023-03-17T04:03:51;6.40;;;3.55;;
74894;SDS011;63447;49.446;8.666;2023-03-17T04:06:16;8.68;;;3.50;;
74894;SDS011;63447;49.446;8.666;2023-03-17T04:08:42;5.87;;;3.03;;
74894;SDS011;63447;49.446;8.666;2023-03-17T04:11:07;8.50;;;3.43;;
74894;SDS011;63447;49.446;8.666;2023-03-17T04:13:32;8.45;;;3.92;;
74894;SDS011;63447;49.446;8.666;2023-03-17T04:16:00;8.32;;;4.07;;
74894;SDS011;63447;49.446;8.666;2023-03-17T04:18:26;7.75;;;3.80;;
74894;SDS011;63447;49.446;8.666;2023-03-17T04:20:51;7.82;;;3.65;;
74894;SDS011;63447;49.446;8.666;2023-03-17T04:23:17;7.47;;;3.55;;
74894;SDS011;63447;49.446;8.666;2023-03-17T04:25:43;8.25;;;4.15;;
74894;SDS011;63447;49.446;8.666;2023-03-17T04:28:11;8.63;;;3.92;;
74894;SDS011;63447;49.446;8.666;2023-03-17T04:30:36;8.38;;;3.85;;
74894;SDS011;63447;49.446;8.666;2023-03-17T04:33:04;8.63;;;4.07;;
74894;SDS011;63447;49.446;8.666;2023-03-17T04:35:29;9.33;;;3.90;;
74894;SDS011;63447;49.446;8.666;2023-03-17T04:37:54;7.70;;;3.90;;
74894;SDS011;63447;49.446;8.666;2023-03-17T04:40:20;9.63;;;4.37;;
74894;SDS011;63447;49.446;8.666;2023-03-17T04:42:45;7.47;;;4.15;;
74894;SDS011;63447;49.446;8.666;2023-03-17T04:45:18;9.57;;;4.63;;
74894;SDS011;63447;49.446;8.666;2023-03-17T04:47:48;9.23;;;4.43;;
74894;SDS011;63447;49.446;8.666;2023-03-17T04:50:15;9.20;;;4.53;;
74894;SDS011;63447;49.446;8.666;2023-03-17T04:52:42;8.25;;;4.50;;
74894;SDS011;63447;49.446;8.666;2023-03-17T04:55:07;8.82;;;4.70;;
74894;SDS011;63447;49.446;8.666;2023-03-17T04:57:35;10.20;;;5.43;;
74894;SDS011;63447;49.446;8.666;2023-03-17T05:00:06;10.38;;;5.20;;
74894;SDS011;63447;49.446;8.666;2023-03-17T05:02:33;9.25;;;4.82;;
74894;SDS011;63447;49.446;8.666;2023-03-17T05:04:59;8.25;;;4.80;;
74894;SDS011;63447;49.446;8.666;2023-03-17T05:07:25;9.70;;;4.97;;
74894;SDS011;63447;49.446;8.666;2023-03-17T05:12:15;9.33;;;4.70;;
74894;SDS011;63447;49.446;8.666;2023-03-17T05:14:43;8.57;;;4.43;;
74894;SDS011;63447;49.446;8.666;2023-03-17T05:17:08;8.73;;;4.40;;
74894;SDS011;63447;49.446;8.666;2023-03-17T05:19:36;7.40;;;4.30;;
74894;SDS011;63447;49.446;8.666;2023-03-17T05:22:02;9.40;;;5.00;;
74894;SDS011;63447;49.446;8.666;2023-03-17T05:24:27;9.93;;;4.40;;
74894;SDS011;63447;49.446;8.666;2023-03-17T05:26:57;9.23;;;5.00;;
74894;SDS011;63447;49.446;8.666;2023-03-17T05:29:23;10.68;;;5.15;;
74894;SDS011;63447;49.446;8.666;2023-03-17T05:31:48;10.77;;;5.00;;
74894;SDS011;63447;49.446;8.666;2023-03-17T05:36:41;8.88;;;4.45;;
74894;SDS011;63447;49.446;8.666;2023-03-17T05:39:10;9.30;;;5.07;;
74894;SDS011;63447;49.446;8.666;2023-03-17T05:41:38;8.65;;;4.47;;
74894;SDS011;63447;49.446;8.666;2023-03-17T05:44:03;11.35;;;4.75;;
74894;SDS011;63447;49.446;8.666;2023-03-17T05:46:28;10.10;;;5.18;;
74894;SDS011;63447;49.446;8.666;2023-03-17T05:48:54;9.85;;;4.82;;
74894;SDS011;63447;49.446;8.666;2023-03-17T05:51:22;8.95;;;5.45;;
74894;SDS011;63447;49.446;8.666;2023-03-17T05:53:51;9.57;;;4.93;;
74894;SDS011;63447;49.446;8.666;2023-03-17T05:56:16;8.40;;;4.83;;
74894;SDS011;63447;49.446;8.666;2023-03-17T06:01:09;8.82;;;5.88;;
74894;SDS011;63447;49.446;8.666;2023-03-17T06:03:35;8.70;;;4.68;;
74894;SDS011;63447;49.446;8.666;2023-03-17T06:06:02;8.45;;;4.60;;
74894;SDS011;63447;49.446;8.666;2023-03-17T06:08:28;9.35;;;5.00;;
74894;SDS011;63447;49.446;8.666;2023-03-17T06:10:53;13.10;;;6.40;;
74894;SDS011;63447;49.446;8.666;2023-03-17T06:13:21;12.68;;;7.10;;
74894;SDS011;63447;49.446;8.666;2023-03-17T06:18:12;11.07;;;5.97;;
74894;SDS011;63447;49.446;8.666;2023-03-17T06:23:03;10.03;;;5.37;;
74894;SDS011;63447;49.446;8.666;2023-03-17T06:27:54;10.40;;;5.28;;
74894;SDS011;63447;49.446;8.666;2023-03-17T06:30:20;10.18;;;5.70;;
74894;SDS011;63447;49.446;8.666;2023-03-17T06:32:46;11.13;;;5.30;;
74894;SDS011;63447;49.446;8.666;2023-03-17T06:37:37;9.80;;;5.30;;
74894;SDS011;63447;49.446;8.666;2023-03-17T06:42:29;9.52;;;5.25;;
74894;SDS011;63447;49.446;8.666;2023-03-17T06:44:59;10.05;;;5.13;;
74894;SDS011;63447;49.446;8.666;2023-03-17T06:47:25;10.80;;;6.45;;
74894;SDS011;63447;49.446;8.666;2023-03-17T06:49:53;10.77;;;5.90;;
74894;SDS011;63447;49.446;8.666;2023-03-17T06:52:21;9.30;;;5.22;;
74894;SDS011;63447;49.446;8.666;2023-03-17T06:54:49;10.57;;;5.72;;
74894;SDS011;63447;49.446;8.666;2023-03-17T06:57:16;12.05;;;6.13;;
74894;SDS011;63447;49.446;8.666;2023-03-17T06:59:43;12.23;;;6.45;;
74894;SDS011;63447;49.446;8.666;2023-03-17T07:02:10;14.93;;;8.27;;
74894;SDS011;63447;49.446;8.666;2023-03-17T07:04:40;15.45;;;8.60;;
74894;SDS011;63447;49.446;8.666;2023-03-17T07:07:05;15.70;;;8.90;;
74894;SDS011;63447;49.446;8.666;2023-03-17T07:11:59;16.90;;;9.40;;
74894;SDS011;63447;49.446;8.666;2023-03-17T07:14:35;16.70;;;9.00;;
74894;SDS011;63447;49.446;8.666;2023-03-17T07:17:01;14.48;;;8.20;;
74894;SDS011;63447;49.446;8.666;2023-03-17T07:19:27;13.45;;;7.85;;
74894;SDS011;63447;49.446;8.666;2023-03-17T07:21:55;13.68;;;7.75;;
74894;SDS011;63447;49.446;8.666;2023-03-17T07:24:21;14.95;;;8.38;;
74894;SDS011;63447;49.446;8.666;2023-03-17T07:26:49;12.93;;;7.80;;
74894;SDS011;63447;49.446;8.666;2023-03-17T07:29:15;14.95;;;8.13;;
74894;SDS011;63447;49.446;8.666;2023-03-17T07:31:43;15.00;;;7.90;;
74894;SDS011;63447;49.446;8.666;2023-03-17T07:34:14;13.52;;;7.25;;
74894;SDS011;63447;49.446;8.666;2023-03-17T07:36:42;11.75;;;7.63;;
74894;SDS011;63447;49.446;8.666;2023-03-17T07:39:08;12.35;;;6.93;;
74894;SDS011;63447;49.446;8.666;2023-03-17T07:41:36;13.07;;;7.00;;
74894;SDS011;63447;49.446;8.666;2023-03-17T07:44:02;12.67;;;7.53;;
74894;SDS011;63447;49.446;8.666;2023-03-17T07:46:28;11.85;;;6.32;;
74894;SDS011;63447;49.446;8.666;2023-03-17T07:48:55;12.80;;;7.20;;
74894;SDS011;63447;49.446;8.666;2023-03-17T07:51:21;14.30;;;8.20;;
74894;SDS011;63447;49.446;8.666;2023-03-17T07:53:51;14.93;;;7.63;;
74894;SDS011;63447;49.446;8.666;2023-03-17T07:56:19;15.20;;;8.07;;
74894;SDS011;63447;49.446;8.666;2023-03-17T07:58:45;14.02;;;7.22;;
74894;SDS011;63447;49.446;8.666;2023-03-17T08:01:13;14.18;;;6.78;;
74894;SDS011;63447;49.446;8.666;2023-03-17T08:03:39;11.52;;;6.53;;
74894;SDS011;63447;49.446;8.666;2023-03-17T08:06:04;11.60;;;6.30;;
74894;SDS011;63447;49.446;8.666;2023-03-17T08:08:30;13.57;;;6.95;;
74894;SDS011;63447;49.446;8.666;2023-03-17T08:11:00;13.60;;;7.38;;
74894;SDS011;63447;49.446;8.666;2023-03-17T08:13:30;12.43;;;7.03;;
74894;SDS011;63447;49.446;8.666;2023-03-17T08:15:58;12.98;;;7.20;;
74894;SDS011;63447;49.446;8.666;2023-03-17T08:18:24;11.25;;;7.05;;
74894;SDS011;63447;49.446;8.666;2023-03-17T08:20:52;11.95;;;7.18;;
74894;SDS011;63447;49.446;8.666;2023-03-17T08:23:18;12.10;;;7.07;;
74894;SDS011;63447;49.446;8.666;2023-03-17T08:25:47;10.45;;;6.13;;
74894;SDS011;63447;49.446;8.666;2023-03-17T08:28:13;10.90;;;6.63;;
74894;SDS011;63447;49.446;8.666;2023-03-17T08:30:39;9.65;;;5.88;;
74894;SDS011;63447;49.446;8.666;2023-03-17T08:33:06;10.68;;;5.93;;
74894;SDS011;63447;49.446;8.666;2023-03-17T08:35:32;9.02;;;5.45;;
74894;SDS011;63447;49.446;8.666;2023-03-17T08:38:00;10.95;;;6.10;;
74894;SDS011;63447;49.446;8.666;2023-03-17T08:40:26;11.20;;;6.07;;
74894;SDS011;63447;49.446;8.666;2023-03-17T08:42:52;10.48;;;6.32;;
74894;SDS011;63447;49.446;8.666;2023-03-17T08:45:22;11.07;;;6.03;;
74894;SDS011;63447;49.446;8.666;2023-03-17T08:47:48;9.95;;;6.10;;
74894;SDS011;63447;49.446;8.666;2023-03-17T08:50:17;11.30;;;5.83;;
74894;SDS011;63447;49.446;8.666;2023-03-17T08:52:46;10.63;;;5.85;;
74894;SDS011;63447;49.446;8.666;2023-03-17T08:55:13;9.73;;;5.90;;
74894;SDS011;63447;49.446;8.666;2023-03-17T08:57:39;11.13;;;5.72;;
74894;SDS011;63447;49.446;8.666;2023-03-17T09:00:09;11.70;;;6.93;;
74894;SDS011;63447;49.446;8.666;2023-03-17T09:02:36;8.65;;;5.65;;
74894;SDS011;63447;49.446;8.666;2023-03-17T09:05:02;9.57;;;5.72;;
74894;SDS011;63447;49.446;8.666;2023-03-17T09:07:29;9.00;;;6.15;;
74894;SDS011;63447;49.446;8.666;2023-03-17T09:09:55;8.38;;;5.63;;
74894;SDS011;63447;49.446;8.666;2023-03-17T09:12:21;10.48;;;5.57;;
74894;SDS011;63447;49.446;8.666;2023-03-17T09:14:50;10.48;;;5.63;;
74894;SDS011;63447;49.446;8.666;2023-03-17T09:17:17;9.55;;;5.53;;
74894;SDS011;63447;49.446;8.666;2023-03-17T09:19:45;8.63;;;5.40;;
74894;SDS011;63447;49.446;8.666;2023-03-17T09:22:11;8.32;;;5.25;;
74894;SDS011;63447;49.446;8.666;2023-03-17T09:24:40;10.55;;;6.13;;
74894;SDS011;63447;49.446;8.666;2023-03-17T09:27:06;9.27;;;5.85;;
74894;SDS011;63447;49.446;8.666;2023-03-17T09:29:34;9.27;;;5.75;;
74894;SDS011;63447;49.446;8.666;2023-03-17T09:32:02;9.73;;;5.88;;
74894;SDS011;63447;49.446;8.666;2023-03-17T09:34:27;9.45;;;5.45;;
74894;SDS011;63447;49.446;8.666;2023-03-17T09:36:53;9.45;;;5.15;;
74894;SDS011;63447;49.446;8.666;2023-03-17T09:39:19;10.73;;;5.20;;
74894;SDS011;63447;49.446;8.666;2023-03-17T09:50:38;8.45;;;4.50;;
74894;SDS011;63447;49.446;8.666;2023-03-17T09:53:16;8.73;;;4.30;;
74894;SDS011;63447;49.446;8.666;2023-03-17T09:55:46;8.43;;;4.30;;
74894;SDS011;63447;49.446;8.666;2023-03-17T09:58:15;8.02;;;4.43;;
74894;SDS011;63447;49.446;8.666;2023-03-17T10:00:45;7.72;;;4.15;;
74894;SDS011;63447;49.446;8.666;2023-03-17T10:03:11;7.15;;;3.70;;
74894;SDS011;63447;49.446;8.666;2023-03-17T10:05:39;6.78;;;3.63;;
74894;SDS011;63447;49.446;8.666;2023-03-17T10:21:54;6.78;;;3.28;;
74894;SDS011;63447;49.446;8.666;2023-03-17T10:24:32;5.97;;;3.17;;
74894;SDS011;63447;49.446;8.666;2023-03-17T10:27:03;6.30;;;2.95;;
74894;SDS011;63447;49.446;8.666;2023-03-17T10:29:34;6.43;;;2.65;;
74894;SDS011;63447;49.446;8.666;2023-03-17T10:32:00;7.10;;;2.67;;
74894;SDS011;63447;49.446;8.666;2023-03-17T10:34:26;5.67;;;2.60;;
74894;SDS011;63447;49.446;8.666;2023-03-17T10:39:29;6.45;;;2.83;;
74894;SDS011;63447;49.446;8.666;2023-03-17T10:41:56;5.35;;;2.53;;
74894;SDS011;63447;49.446;8.666;2023-03-17T10:44:40;6.80;;;2.70;;
74894;SDS011;63447;49.446;8.666;2023-03-17T10:49:49;6.60;;;2.63;;
74894;SDS011;63447;49.446;8.666;2023-03-17T10:52:21;6.25;;;2.72;;
74894;SDS011;63447;49.446;8.666;2023-03-17T10:54:51;6.82;;;2.60;;
74894;SDS011;63447;49.446;8.666;2023-03-17T10:57:16;6.63;;;2.90;;
74894;SDS011;63447;49.446;8.666;2023-03-17T10:59:47;7.43;;;2.85;;
74894;SDS011;63447;49.446;8.666;2023-03-17T11:02:20;6.35;;;2.58;;
74894;SDS011;63447;49.446;8.666;2023-03-17T11:04:51;6.75;;;3.03;;
74894;SDS011;63447;49.446;8.666;2023-03-17T11:10:11;6.55;;;3.10;;
74894;SDS011;63447;49.446;8.666;2023-03-17T11:12:42;6.90;;;2.85;;
74894;SDS011;63447;49.446;8.666;2023-03-17T11:15:12;7.88;;;3.10;;
74894;SDS011;63447;49.446;8.666;2023-03-17T11:17:55;7.32;;;3.30;;
74894;SDS011;63447;49.446;8.666;2023-03-17T11:23:13;6.45;;;2.83;;
74894;SDS011;63447;49.446;8.666;2023-03-17T11:25:52;6.47;;;2.70;;
74894;SDS011;63447;49.446;8.666;2023-03-17T11:28:34;5.93;;;2.70;;
74894;SDS011;63447;49.446;8.666;2023-03-17T11:31:25;5.22;;;2.38;;
74894;SDS011;63447;49.446;8.666;2023-03-17T11:34:20;6.35;;;2.78;;
74894;SDS011;63447;49.446;8.666;2023-03-17T11:40:19;7.53;;;3.42;;
74894;SDS011;63447;49.446;8.666;2023-03-17T11:43:34;7.10;;;3.10;;
74894;SDS011;63447;49.446;8.666;2023-03-17T11:51:26;5.80;;;2.60;;
74894;SDS011;63447;49.446;8.666;2023-03-17T11:57:10;7.15;;;3.15;;
74894;SDS011;63447;49.446;8.666;2023-03-17T12:05:19;6.95;;;2.95;;
74894;SDS011;63447;49.446;8.666;2023-03-17T12:15:40;6.97;;;3.00;;
74894;SDS011;63447;49.446;8.666;2023-03-17T12:20:56;6.18;;;2.90;;
74894;SDS011;63447;49.446;8.666;2023-03-17T12:31:36;6.82;;;2.90;;
74894;SDS011;63447;49.446;8.666;2023-03-17T12:36:49;6.70;;;2.80;;
74894;SDS011;63447;49.446;8.666;2023-03-17T12:39:21;7.40;;;2.60;;
74894;SDS011;63447;49.446;8.666;2023-03-17T12:42:06;6.68;;;2.40;;
74894;SDS011;63447;49.446;8.666;2023-03-17T12:44:48;7.05;;;2.80;;
74894;SDS011;63447;49.446;8.666;2023-03-17T12:55:45;6.50;;;2.55;;
74894;SDS011;63447;49.446;8.666;2023-03-17T13:03:31;6.18;;;2.67;;
74894;SDS011;63447;49.446;8.666;2023-03-17T13:06:01;5.75;;;2.58;;
74894;SDS011;63447;49.446;8.666;2023-03-17T13:08:36;5.60;;;2.72;;
74894;SDS011;63447;49.446;8.666;2023-03-17T13:14:26;5.35;;;2.10;;
74894;SDS011;63447;49.446;8.666;2023-03-17T13:20:30;7.18;;;2.42;;
74894;SDS011;63447;49.446;8.666;2023-03-17T13:26:05;6.40;;;2.38;;
74894;SDS011;63447;49.446;8.666;2023-03-17T13:38:33;6.80;;;3.00;;
74894;SDS011;63447;49.446;8.666;2023-03-17T13:46:44;5.95;;;2.60;;
74894;SDS011;63447;49.446;8.666;2023-03-17T13:51:42;6.97;;;2.30;;
74894;SDS011;63447;49.446;8.666;2023-03-17T13:56:57;6.22;;;2.30;;
74894;SDS011;63447;49.446;8.666;2023-03-17T14:02:17;4.72;;;1.90;;
74894;SDS011;63447;49.446;8.666;2023-03-17T14:07:22;5.38;;;2.00;;
74894;SDS011;63447;49.446;8.666;2023-03-17T14:09:55;5.45;;;2.40;;
74894;SDS011;63447;49.446;8.666;2023-03-17T14:20:39;6.88;;;2.80;;
74894;SDS011;63447;49.446;8.666;2023-03-17T14:23:04;8.10;;;3.88;;
74894;SDS011;63447;49.446;8.666;2023-03-17T14:25:32;7.65;;;3.60;;
74894;SDS011;63447;49.446;8.666;2023-03-17T14:28:01;7.45;;;3.08;;
74894;SDS011;63447;49.446;8.666;2023-03-17T14:30:32;7.15;;;2.72;;
74894;SDS011;63447;49.446;8.666;2023-03-17T14:35:42;6.35;;;2.70;;
74894;SDS011;63447;49.446;8.666;2023-03-17T14:43:38;4.50;;;2.17;;
74894;SDS011;63447;49.446;8.666;2023-03-17T14:46:06;5.72;;;2.45;;
74894;SDS011;63447;49.446;8.666;2023-03-17T14:48:37;6.00;;;2.50;;
74894;SDS011;63447;49.446;8.666;2023-03-17T14:51:11;6.95;;;2.40;;
74894;SDS011;63447;49.446;8.666;2023-03-17T14:53:41;8.05;;;2.88;;
74894;SDS011;63447;49.446;8.666;2023-03-17T14:56:10;7.45;;;3.25;;
74894;SDS011;63447;49.446;8.666;2023-03-17T14:58:39;9.15;;;4.05;;
74894;SDS011;63447;49.446;8.666;2023-03-17T15:01:11;9.50;;;4.20;;
74894;SDS011;63447;49.446;8.666;2023-03-17T15:06:48;7.05;;;3.08;;
74894;SDS011;63447;49.446;8.666;2023-03-17T15:09:16;6.97;;;2.95;;
74894;SDS011;63447;49.446;8.666;2023-03-17T15:11:43;6.78;;;2.90;;
74894;SDS011;63447;49.446;8.666;2023-03-17T15:14:17;5.80;;;2.60;;
74894;SDS011;63447;49.446;8.666;2023-03-17T15:16:49;6.60;;;2.78;;
74894;SDS011;63447;49.446;8.666;2023-03-17T15:19:27;7.55;;;2.85;;
74894;SDS011;63447;49.446;8.666;2023-03-17T15:22:03;5.75;;;2.63;;
74894;SDS011;63447;49.446;8.666;2023-03-17T15:24:38;6.70;;;2.60;;
74894;SDS011;63447;49.446;8.666;2023-03-17T15:27:15;6.80;;;2.65;;
74894;SDS011;63447;49.446;8.666;2023-03-17T15:29:42;7.03;;;3.30;;
74894;SDS011;63447;49.446;8.666;2023-03-17T15:32:09;8.57;;;3.33;;
74894;SDS011;63447;49.446;8.666;2023-03-17T15:34:35;7.10;;;3.30;;
74894;SDS011;63447;49.446;8.666;2023-03-17T15:37:01;6.97;;;3.03;;
74894;SDS011;63447;49.446;8.666;2023-03-17T15:39:28;5.88;;;3.20;;
74894;SDS011;63447;49.446;8.666;2023-03-17T15:41:54;7.40;;;3.20;;
74894;SDS011;63447;49.446;8.666;2023-03-17T15:44:21;6.07;;;3.00;;
74894;SDS011;63447;49.446;8.666;2023-03-17T15:46:49;6.80;;;3.23;;
74894;SDS011;63447;49.446;8.666;2023-03-17T15:49:17;7.57;;;3.08;;
74894;SDS011;63447;49.446;8.666;2023-03-17T15:51:42;6.93;;;3.40;;
74894;SDS011;63447;49.446;8.666;2023-03-17T15:54:10;7.43;;;3.10;;
74894;SDS011;63447;49.446;8.666;2023-03-17T15:56:39;6.75;;;3.05;;
74894;SDS011;63447;49.446;8.666;2023-03-17T15:59:07;6.20;;;2.85;;
74894;SDS011;63447;49.446;8.666;2023-03-17T16:01:33;6.22;;;3.15;;
74894;SDS011;63447;49.446;8.666;2023-03-17T16:03:59;6.15;;;3.03;;
74894;SDS011;63447;49.446;8.666;2023-03-17T16:06:26;7.32;;;3.10;;
74894;SDS011;63447;49.446;8.666;2023-03-17T16:08:56;7.82;;;2.97;;
74894;SDS011;63447;49.446;8.666;2023-03-17T16:11:22;6.70;;;2.87;;
74894;SDS011;63447;49.446;8.666;2023-03-17T16:13:54;7.47;;;3.20;;
74894;SDS011;63447;49.446;8.666;2023-03-17T16:16:22;7.63;;;3.08;;
74894;SDS011;63447;49.446;8.666;2023-03-17T16:18:53;6.65;;;2.63;;
74894;SDS011;63447;49.446;8.666;2023-03-17T16:21:21;5.82;;;2.85;;
74894;SDS011;63447;49.446;8.666;2023-03-17T16:23:46;6.47;;;2.67;;
74894;SDS011;63447;49.446;8.666;2023-03-17T16:26:13;8.32;;;2.78;;
74894;SDS011;63447;49.446;8.666;2023-03-17T16:28:41;7.72;;;2.88;;
74894;SDS011;63447;49.446;8.666;2023-03-17T16:31:23;6.03;;;2.70;;
74894;SDS011;63447;49.446;8.666;2023-03-17T16:33:51;7.88;;;2.90;;
74894;SDS011;63447;49.446;8.666;2023-03-17T16:36:19;9.13;;;3.00;;
74894;SDS011;63447;49.446;8.666;2023-03-17T16:38:49;11.98;;;3.05;;
74894;SDS011;63447;49.446;8.666;2023-03-17T16:43:48;10.52;;;3.72;;
74894;SDS011;63447;49.446;8.666;2023-03-17T16:46:18;7.88;;;3.10;;
74894;SDS011;63447;49.446;8.666;2023-03-17T16:48:46;7.90;;;2.97;;
74894;SDS011;63447;49.446;8.666;2023-03-17T16:51:13;7.43;;;3.17;;
74894;SDS011;63447;49.446;8.666;2023-03-17T16:53:41;7.45;;;3.70;;
74894;SDS011;63447;49.446;8.666;2023-03-17T16:56:14;8.57;;;3.75;;
74894;SDS011;63447;49.446;8.666;2023-03-17T16:58:44;8.93;;;3.97;;
74894;SDS011;63447;49.446;8.666;2023-03-17T17:01:15;8.23;;;4.30;;
74894;SDS011;63447;49.446;8.666;2023-03-17T17:03:44;8.10;;;3.83;;
74894;SDS011;63447;49.446;8.666;2023-03-17T17:06:13;6.50;;;3.65;;
74894;SDS011;63447;49.446;8.666;2023-03-17T17:08:42;8.05;;;3.45;;
74894;SDS011;63447;49.446;8.666;2023-03-17T17:11:09;7.20;;;3.60;;
74894;SDS011;63447;49.446;8.666;2023-03-17T17:13:37;7.32;;;2.78;;
74894;SDS011;63447;49.446;8.666;2023-03-17T17:16:06;5.88;;;2.80;;
74894;SDS011;63447;49.446;8.666;2023-03-17T17:18:41;10.27;;;4.28;;
74894;SDS011;63447;49.446;8.666;2023-03-17T17:21:07;11.07;;;4.87;;
74894;SDS011;63447;49.446;8.666;2023-03-17T17:23:32;9.00;;;3.67;;
74894;SDS011;63447;49.446;8.666;2023-03-17T17:26:00;8.32;;;3.70;;
74894;SDS011;63447;49.446;8.666;2023-03-17T17:28:25;7.83;;;3.30;;
74894;SDS011;63447;49.446;8.666;2023-03-17T17:30:51;6.82;;;3.15;;
74894;SDS011;63447;49.446;8.666;2023-03-17T17:33:17;6.00;;;2.70;;
74894;SDS011;63447;49.446;8.666;2023-03-17T17:35:44;6.70;;;2.92;;
74894;SDS011;63447;49.446;8.666;2023-03-17T17:38:14;6.53;;;2.55;;
74894;SDS011;63447;49.446;8.666;2023-03-17T17:40:43;8.18;;;3.03;;
74894;SDS011;63447;49.446;8.666;2023-03-17T17:43:08;8.70;;;3.30;;
74894;SDS011;63447;49.446;8.666;2023-03-17T17:45:36;7.88;;;4.00;;
74894;SDS011;63447;49.446;8.666;2023-03-17T17:48:01;8.75;;;4.45;;
74894;SDS011;63447;49.446;8.666;2023-03-17T17:50:28;11.85;;;6.50;;
74894;SDS011;63447;49.446;8.666;2023-03-17T17:52:54;7.80;;;3.60;;
74894;SDS011;63447;49.446;8.666;2023-03-17T17:55:28;7.35;;;3.70;;
74894;SDS011;63447;49.446;8.666;2023-03-17T17:57:56;8.38;;;3.92;;
74894;SDS011;63447;49.446;8.666;2023-03-17T18:00:24;10.23;;;4.88;;
74894;SDS011;63447;49.446;8.666;2023-03-17T18:02:50;8.13;;;4.22;;
74894;SDS011;63447;49.446;8.666;2023-03-17T18:05:15;11.23;;;4.80;;
74894;SDS011;63447;49.446;8.666;2023-03-17T18:07:43;8.88;;;4.22;;
74894;SDS011;63447;49.446;8.666;2023-03-17T18:10:15;12.00;;;4.80;;
74894;SDS011;63447;49.446;8.666;2023-03-17T18:12:51;10.13;;;4.75;;
74894;SDS011;63447;49.446;8.666;2023-03-17T18:15:17;9.15;;;4.80;;
74894;SDS011;63447;49.446;8.666;2023-03-17T18:17:46;8.93;;;4.57;;
74894;SDS011;63447;49.446;8.666;2023-03-17T18:20:13;15.68;;;8.27;;